sensor_id;sensor_type;location;lat;lon;timestamp;pressure;altitude;pressure_sealevel;temperature;humidity
51972;BME280;37991;49.662;10.060;2022-07-17T00:00:19;100233.06;;;12.39;68.53
51972;BME280;37991;49.662;10.060;2022-07-17T00:02:45;100223.38;;;12.39;68.98
51972;BME280;37991;49.662;10.060;2022-07-17T00:05:13;100229.03;;;12.33;69.39
51972;BME280;37991;49.662;10.060;2022-07-17T00:07:39;100237.75;;;12.33;69.10
51972;BME280;37991;49.662;10.060;2022-07-17T00:10:04;100238.13;;;12.27;69.33
51972;BME280;37991;49.662;10.060;2022-07-17T00:12:30;100241.22;;;12.34;69.08
51972;BME280;37991;49.662;10.060;2022-07-17T00:14:55;100239.28;;;12.23;69.50
51972;BME280;37991;49.662;10.060;2022-07-17T00:17:21;100249.50;;;12.14;69.80
51972;BME280;37991;49.662;10.060;2022-07-17T00:19:46;100257.28;;;12.15;69.74
51972;BME280;37991;49.662;10.060;2022-07-17T00:22:12;100260.19;;;12.10;69.58
51972;BME280;37991;49.662;10.060;2022-07-17T00:24:37;100257.66;;;12.09;69.86
51972;BME280;37991;49.662;10.060;2022-07-17T00:27:02;100258.72;;;12.06;69.74
51972;BME280;37991;49.662;10.060;2022-07-17T00:29:28;100258.78;;;12.05;70.00
51972;BME280;37991;49.662;10.060;2022-07-17T00:31:53;100259.81;;;12.02;69.95
51972;BME280;37991;49.662;10.060;2022-07-17T00:34:19;100260.13;;;11.98;69.99
51972;BME280;37991;49.662;10.060;2022-07-17T00:36:44;100259.09;;;12.00;69.82
51972;BME280;37991;49.662;10.060;2022-07-17T00:39:09;100255.13;;;11.93;70.16
51972;BME280;37991;49.662;10.060;2022-07-17T00:41:35;100255.59;;;11.85;70.43
51972;BME280;37991;49.662;10.060;2022-07-17T00:44:09;100262.88;;;11.80;70.54
51972;BME280;37991;49.662;10.060;2022-07-17T00:46:38;100251.53;;;11.80;70.52
51972;BME280;37991;49.662;10.060;2022-07-17T00:49:04;100255.22;;;11.77;70.46
51972;BME280;37991;49.662;10.060;2022-07-17T00:51:30;100253.13;;;11.68;70.55
51972;BME280;37991;49.662;10.060;2022-07-17T00:53:57;100258.38;;;11.68;71.05
51972;BME280;37991;49.662;10.060;2022-07-17T00:56:23;100258.94;;;11.59;71.21
51972;BME280;37991;49.662;10.060;2022-07-17T00:58:51;100256.50;;;11.56;71.31
51972;BME280;37991;49.662;10.060;2022-07-17T01:01:17;100256.09;;;11.48;71.52
51972;BME280;37991;49.662;10.060;2022-07-17T01:03:42;100259.38;;;11.51;71.35
51972;BME280;37991;49.662;10.060;2022-07-17T01:06:09;100258.47;;;11.52;71.23
51972;BME280;37991;49.662;10.060;2022-07-17T01:08:35;100264.91;;;11.47;71.77
51972;BME280;37991;49.662;10.060;2022-07-17T01:11:01;100258.16;;;11.43;71.56
51972;BME280;37991;49.662;10.060;2022-07-17T01:13:27;100262.81;;;11.37;72.05
51972;BME280;37991;49.662;10.060;2022-07-17T01:15:52;100257.56;;;11.37;71.70
51972;BME280;37991;49.662;10.060;2022-07-17T01:18:18;100256.16;;;11.32;71.90
51972;BME280;37991;49.662;10.060;2022-07-17T01:20:46;100253.81;;;11.27;72.16
51972;BME280;37991;49.662;10.060;2022-07-17T01:23:12;100249.09;;;11.18;72.42
51972;BME280;37991;49.662;10.060;2022-07-17T01:25:38;100264.00;;;11.17;72.41
51972;BME280;37991;49.662;10.060;2022-07-17T01:28:04;100261.53;;;11.14;72.29
51972;BME280;37991;49.662;10.060;2022-07-17T01:30:30;100258.16;;;11.12;73.01
51972;BME280;37991;49.662;10.060;2022-07-17T01:32:56;100259.84;;;11.13;72.45
51972;BME280;37991;49.662;10.060;2022-07-17T01:35:21;100265.34;;;11.09;72.88
51972;BME280;37991;49.662;10.060;2022-07-17T01:37:47;100262.25;;;11.02;72.92
51972;BME280;37991;49.662;10.060;2022-07-17T01:40:14;100263.09;;;11.03;73.03
51972;BME280;37991;49.662;10.060;2022-07-17T01:42:48;100266.66;;;11.02;72.86
51972;BME280;37991;49.662;10.060;2022-07-17T01:45:16;100264.53;;;10.92;73.18
51972;BME280;37991;49.662;10.060;2022-07-17T01:47:42;100257.78;;;10.88;73.25
51972;BME280;37991;49.662;10.060;2022-07-17T01:50:09;100258.72;;;10.87;73.28
51972;BME280;37991;49.662;10.060;2022-07-17T01:52:36;100264.28;;;10.81;73.47
51972;BME280;37991;49.662;10.060;2022-07-17T01:55:06;100259.59;;;10.72;73.50
51972;BME280;37991;49.662;10.060;2022-07-17T01:57:32;100262.72;;;10.63;73.82
51972;BME280;37991;49.662;10.060;2022-07-17T01:59:58;100258.50;;;10.60;74.14
51972;BME280;37991;49.662;10.060;2022-07-17T02:02:24;100271.31;;;10.65;73.82
51972;BME280;37991;49.662;10.060;2022-07-17T02:04:49;100255.78;;;10.62;73.92
51972;BME280;37991;49.662;10.060;2022-07-17T02:07:14;100264.47;;;10.62;73.97
51972;BME280;37991;49.662;10.060;2022-07-17T02:09:40;100263.81;;;10.59;74.10
51972;BME280;37991;49.662;10.060;2022-07-17T02:12:05;100264.75;;;10.58;74.23
51972;BME280;37991;49.662;10.060;2022-07-17T02:14:31;100267.63;;;10.53;74.24
51972;BME280;37991;49.662;10.060;2022-07-17T02:16:57;100262.63;;;10.48;74.37
51972;BME280;37991;49.662;10.060;2022-07-17T02:19:23;100262.63;;;10.48;74.41
51972;BME280;37991;49.662;10.060;2022-07-17T02:21:48;100266.25;;;10.46;74.57
51972;BME280;37991;49.662;10.060;2022-07-17T02:24:13;100262.06;;;10.43;74.75
51972;BME280;37991;49.662;10.060;2022-07-17T02:26:39;100262.22;;;10.40;74.87
51972;BME280;37991;49.662;10.060;2022-07-17T02:29:05;100264.13;;;10.37;74.71
51972;BME280;37991;49.662;10.060;2022-07-17T02:31:30;100255.28;;;10.39;74.84
51972;BME280;37991;49.662;10.060;2022-07-17T02:33:56;100258.91;;;10.37;74.84
51972;BME280;37991;49.662;10.060;2022-07-17T02:36:21;100249.53;;;10.33;74.94
51972;BME280;37991;49.662;10.060;2022-07-17T02:38:47;100252.06;;;10.34;74.71
51972;BME280;37991;49.662;10.060;2022-07-17T02:41:13;100257.53;;;10.30;74.78
51972;BME280;37991;49.662;10.060;2022-07-17T02:43:38;100264.66;;;10.28;75.18
51972;BME280;37991;49.662;10.060;2022-07-17T02:46:04;100265.69;;;10.23;75.13
51972;BME280;37991;49.662;10.060;2022-07-17T02:48:29;100256.22;;;10.21;75.20
51972;BME280;37991;49.662;10.060;2022-07-17T02:50:55;100258.00;;;10.20;75.28
51972;BME280;37991;49.662;10.060;2022-07-17T02:53:20;100254.81;;;10.15;75.24
51972;BME280;37991;49.662;10.060;2022-07-17T02:55:45;100259.53;;;10.09;75.31
51972;BME280;37991;49.662;10.060;2022-07-17T02:58:11;100253.69;;;10.04;75.54
51972;BME280;37991;49.662;10.060;2022-07-17T03:00:37;100256.25;;;10.05;75.60
51972;BME280;37991;49.662;10.060;2022-07-17T03:03:02;100253.00;;;10.00;75.76
51972;BME280;37991;49.662;10.060;2022-07-17T03:05:28;100256.94;;;9.91;76.06
51972;BME280;37991;49.662;10.060;2022-07-17T03:07:53;100257.19;;;9.87;76.03
51972;BME280;37991;49.662;10.060;2022-07-17T03:10:18;100258.81;;;9.89;75.84
51972;BME280;37991;49.662;10.060;2022-07-17T03:12:44;100260.56;;;9.89;76.16
51972;BME280;37991;49.662;10.060;2022-07-17T03:15:10;100252.19;;;9.82;76.00
51972;BME280;37991;49.662;10.060;2022-07-17T03:17:35;100259.69;;;9.72;76.38
51972;BME280;37991;49.662;10.060;2022-07-17T03:20:02;100259.78;;;9.71;76.31
51972;BME280;37991;49.662;10.060;2022-07-17T03:22:28;100252.16;;;9.66;76.79
51972;BME280;37991;49.662;10.060;2022-07-17T03:24:53;100263.47;;;9.67;76.70
51972;BME280;37991;49.662;10.060;2022-07-17T03:27:19;100268.53;;;9.70;76.45
51972;BME280;37991;49.662;10.060;2022-07-17T03:29:44;100257.38;;;9.66;76.47
51972;BME280;37991;49.662;10.060;2022-07-17T03:32:10;100259.00;;;9.69;76.64
51972;BME280;37991;49.662;10.060;2022-07-17T03:34:37;100264.47;;;9.64;76.53
51972;BME280;37991;49.662;10.060;2022-07-17T03:37:02;100268.00;;;9.63;76.85
51972;BME280;37991;49.662;10.060;2022-07-17T03:39:29;100275.53;;;9.69;76.84
51972;BME280;37991;49.662;10.060;2022-07-17T03:41:55;100270.63;;;9.63;76.59
51972;BME280;37991;49.662;10.060;2022-07-17T03:44:20;100272.53;;;9.60;76.74
51972;BME280;37991;49.662;10.060;2022-07-17T03:46:46;100271.13;;;9.54;76.99
51972;BME280;37991;49.662;10.060;2022-07-17T03:49:11;100266.03;;;9.51;76.95
51972;BME280;37991;49.662;10.060;2022-07-17T03:51:36;100276.66;;;9.48;77.49
51972;BME280;37991;49.662;10.060;2022-07-17T03:54:02;100268.66;;;9.51;77.11
51972;BME280;37991;49.662;10.060;2022-07-17T03:56:27;100273.09;;;9.49;76.99
51972;BME280;37991;49.662;10.060;2022-07-17T03:58:52;100278.88;;;9.55;77.27
51972;BME280;37991;49.662;10.060;2022-07-17T04:01:18;100278.09;;;9.53;76.87
51972;BME280;37991;49.662;10.060;2022-07-17T04:03:43;100273.25;;;9.46;77.30
51972;BME280;37991;49.662;10.060;2022-07-17T04:06:09;100271.72;;;9.42;77.67
51972;BME280;37991;49.662;10.060;2022-07-17T04:08:34;100275.09;;;9.44;77.57
51972;BME280;37991;49.662;10.060;2022-07-17T04:10:59;100276.81;;;9.45;78.05
51972;BME280;37991;49.662;10.060;2022-07-17T04:13:25;100280.25;;;9.45;77.83
51972;BME280;37991;49.662;10.060;2022-07-17T04:15:50;100271.63;;;9.43;78.11
51972;BME280;37991;49.662;10.060;2022-07-17T04:18:24;100281.00;;;9.47;77.88
51972;BME280;37991;49.662;10.060;2022-07-17T04:20:50;100284.50;;;9.48;77.66
51972;BME280;37991;49.662;10.060;2022-07-17T04:23:16;100286.97;;;9.51;78.19
51972;BME280;37991;49.662;10.060;2022-07-17T04:25:42;100286.03;;;9.52;78.12
51972;BME280;37991;49.662;10.060;2022-07-17T04:28:07;100289.34;;;9.55;78.53
51972;BME280;37991;49.662;10.060;2022-07-17T04:30:33;100284.09;;;9.55;78.29
51972;BME280;37991;49.662;10.060;2022-07-17T04:32:58;100281.41;;;9.57;78.17
51972;BME280;37991;49.662;10.060;2022-07-17T04:35:24;100281.47;;;9.55;78.58
51972;BME280;37991;49.662;10.060;2022-07-17T04:37:49;100288.09;;;9.63;79.05
51972;BME280;37991;49.662;10.060;2022-07-17T04:40:14;100284.88;;;9.58;79.46
51972;BME280;37991;49.662;10.060;2022-07-17T04:42:40;100285.47;;;9.63;79.42
51972;BME280;37991;49.662;10.060;2022-07-17T04:45:06;100283.69;;;9.63;79.72
51972;BME280;37991;49.662;10.060;2022-07-17T04:47:33;100286.94;;;9.68;79.73
51972;BME280;37991;49.662;10.060;2022-07-17T04:49:59;100285.69;;;9.75;79.68
51972;BME280;37991;49.662;10.060;2022-07-17T04:52:24;100288.25;;;9.77;79.97
51972;BME280;37991;49.662;10.060;2022-07-17T04:54:50;100288.78;;;9.84;80.45
51972;BME280;37991;49.662;10.060;2022-07-17T04:57:15;100295.78;;;9.83;80.46
51972;BME280;37991;49.662;10.060;2022-07-17T04:59:40;100291.38;;;9.84;80.98
51972;BME280;37991;49.662;10.060;2022-07-17T05:02:06;100291.13;;;9.88;81.37
51972;BME280;37991;49.662;10.060;2022-07-17T05:04:32;100290.75;;;9.96;81.63
51972;BME280;37991;49.662;10.060;2022-07-17T05:06:57;100285.25;;;10.00;82.09
51972;BME280;37991;49.662;10.060;2022-07-17T05:09:23;100291.84;;;10.08;82.49
51972;BME280;37991;49.662;10.060;2022-07-17T05:11:48;100298.13;;;10.05;82.82
51972;BME280;37991;49.662;10.060;2022-07-17T05:14:13;100293.31;;;10.13;82.83
51972;BME280;37991;49.662;10.060;2022-07-17T05:16:39;100291.38;;;10.17;83.76
51972;BME280;37991;49.662;10.060;2022-07-17T05:19:04;100300.44;;;10.27;83.74
51972;BME280;37991;49.662;10.060;2022-07-17T05:21:30;100302.75;;;10.33;83.86
51972;BME280;37991;49.662;10.060;2022-07-17T05:23:55;100308.16;;;10.46;84.07
51972;BME280;37991;49.662;10.060;2022-07-17T05:26:21;100310.28;;;10.55;84.00
51972;BME280;37991;49.662;10.060;2022-07-17T05:28:46;100319.44;;;10.64;83.68
51972;BME280;37991;49.662;10.060;2022-07-17T05:31:11;100313.69;;;10.73;83.82
51972;BME280;37991;49.662;10.060;2022-07-17T05:33:37;100303.59;;;10.81;83.61
51972;BME280;37991;49.662;10.060;2022-07-17T05:36:03;100298.44;;;10.96;83.37
51972;BME280;37991;49.662;10.060;2022-07-17T05:38:28;100304.50;;;11.12;82.72
51972;BME280;37991;49.662;10.060;2022-07-17T05:40:54;100308.28;;;11.22;82.45
51972;BME280;37991;49.662;10.060;2022-07-17T05:43:19;100306.75;;;11.34;79.91
51972;BME280;37991;49.662;10.060;2022-07-17T05:45:44;100304.34;;;11.45;78.66
51972;BME280;37991;49.662;10.060;2022-07-17T05:48:10;100299.22;;;11.58;78.63
51972;BME280;37991;49.662;10.060;2022-07-17T05:50:35;100296.81;;;11.69;77.95
51972;BME280;37991;49.662;10.060;2022-07-17T05:53:00;100296.81;;;11.83;78.26
51972;BME280;37991;49.662;10.060;2022-07-17T05:55:26;100302.31;;;11.95;77.82
51972;BME280;37991;49.662;10.060;2022-07-17T05:57:51;100306.34;;;12.15;77.12
51972;BME280;37991;49.662;10.060;2022-07-17T06:00:17;100301.38;;;12.39;76.15
51972;BME280;37991;49.662;10.060;2022-07-17T06:02:44;100303.00;;;12.68;75.05
51972;BME280;37991;49.662;10.060;2022-07-17T06:05:10;100302.91;;;12.97;73.74
51972;BME280;37991;49.662;10.060;2022-07-17T06:07:36;100302.06;;;13.23;73.16
51972;BME280;37991;49.662;10.060;2022-07-17T06:10:02;100310.75;;;13.38;72.32
51972;BME280;37991;49.662;10.060;2022-07-17T06:12:27;100313.47;;;13.37;72.77
51972;BME280;37991;49.662;10.060;2022-07-17T06:14:53;100309.38;;;13.33;72.93
51972;BME280;37991;49.662;10.060;2022-07-17T06:17:18;100304.25;;;13.44;72.28
51972;BME280;37991;49.662;10.060;2022-07-17T06:19:44;100305.53;;;13.51;72.90
51972;BME280;37991;49.662;10.060;2022-07-17T06:22:09;100298.91;;;13.58;72.86
51972;BME280;37991;49.662;10.060;2022-07-17T06:24:35;100296.19;;;13.72;71.38
51972;BME280;37991;49.662;10.060;2022-07-17T06:27:00;100311.66;;;14.03;70.26
51972;BME280;37991;49.662;10.060;2022-07-17T06:29:25;100305.00;;;14.35;69.91
51972;BME280;37991;49.662;10.060;2022-07-17T06:31:51;100315.72;;;14.95;67.30
51972;BME280;37991;49.662;10.060;2022-07-17T06:34:16;100305.56;;;15.61;65.29
51972;BME280;37991;49.662;10.060;2022-07-17T06:36:42;100302.66;;;16.10;63.73
51972;BME280;37991;49.662;10.060;2022-07-17T06:39:07;100307.53;;;16.71;62.45
51972;BME280;37991;49.662;10.060;2022-07-17T06:41:32;100308.16;;;17.18;60.72
51972;BME280;37991;49.662;10.060;2022-07-17T06:43:57;100314.44;;;17.38;58.61
51972;BME280;37991;49.662;10.060;2022-07-17T06:46:23;100308.81;;;17.84;58.40
51972;BME280;37991;49.662;10.060;2022-07-17T06:48:48;100315.22;;;18.03;57.74
51972;BME280;37991;49.662;10.060;2022-07-17T06:51:17;100308.19;;;18.23;56.89
51972;BME280;37991;49.662;10.060;2022-07-17T06:53:42;100321.56;;;18.62;56.98
51972;BME280;37991;49.662;10.060;2022-07-17T06:56:08;100319.03;;;19.10;55.65
51972;BME280;37991;49.662;10.060;2022-07-17T06:58:33;100319.03;;;19.68;54.07
51972;BME280;37991;49.662;10.060;2022-07-17T07:00:59;100313.31;;;20.20;52.82
51972;BME280;37991;49.662;10.060;2022-07-17T07:03:24;100314.38;;;20.37;50.86
51972;BME280;37991;49.662;10.060;2022-07-17T07:05:50;100303.91;;;20.63;50.75
51972;BME280;37991;49.662;10.060;2022-07-17T07:08:16;100305.38;;;20.75;50.65
51972;BME280;37991;49.662;10.060;2022-07-17T07:10:41;100315.72;;;20.78;50.02
51972;BME280;37991;49.662;10.060;2022-07-17T07:13:08;100313.13;;;20.86;49.74
51972;BME280;37991;49.662;10.060;2022-07-17T07:15:33;100318.69;;;20.75;48.89
51972;BME280;37991;49.662;10.060;2022-07-17T07:17:59;100317.19;;;20.90;46.44
51972;BME280;37991;49.662;10.060;2022-07-17T07:20:25;100310.28;;;20.70;47.16
51972;BME280;37991;49.662;10.060;2022-07-17T07:22:50;100310.28;;;21.16;47.02
51972;BME280;37991;49.662;10.060;2022-07-17T07:25:15;100307.06;;;21.30;46.69
51972;BME280;37991;49.662;10.060;2022-07-17T07:27:41;100298.50;;;21.36;46.46
51972;BME280;37991;49.662;10.060;2022-07-17T07:30:07;100296.53;;;21.38;45.30
51972;BME280;37991;49.662;10.060;2022-07-17T07:32:41;100298.28;;;21.73;45.31
51972;BME280;37991;49.662;10.060;2022-07-17T07:35:07;100292.25;;;21.97;43.95
51972;BME280;37991;49.662;10.060;2022-07-17T07:37:33;100292.06;;;22.17;43.58
51972;BME280;37991;49.662;10.060;2022-07-17T07:39:58;100287.84;;;22.40;42.86
51972;BME280;37991;49.662;10.060;2022-07-17T07:42:25;100288.78;;;22.82;42.49
51972;BME280;37991;49.662;10.060;2022-07-17T07:44:50;100290.28;;;22.76;41.01
51972;BME280;37991;49.662;10.060;2022-07-17T07:47:16;100289.38;;;22.51;41.61
51972;BME280;37991;49.662;10.060;2022-07-17T07:49:41;100292.59;;;22.71;42.98
51972;BME280;37991;49.662;10.060;2022-07-17T07:52:06;100304.97;;;22.80;41.72
51972;BME280;37991;49.662;10.060;2022-07-17T07:54:32;100291.19;;;23.26;39.93
51972;BME280;37991;49.662;10.060;2022-07-17T07:56:58;100294.88;;;23.25;40.93
51972;BME280;37991;49.662;10.060;2022-07-17T07:59:23;100299.06;;;23.68;40.41
51972;BME280;37991;49.662;10.060;2022-07-17T08:01:48;100299.72;;;23.29;40.50
51972;BME280;37991;49.662;10.060;2022-07-17T08:04:14;100297.53;;;23.65;40.42
51972;BME280;37991;49.662;10.060;2022-07-17T08:06:41;100298.06;;;23.69;40.58
51972;BME280;37991;49.662;10.060;2022-07-17T08:09:06;100290.34;;;23.90;39.07
51972;BME280;37991;49.662;10.060;2022-07-17T08:11:32;100301.41;;;23.87;40.50
51972;BME280;37991;49.662;10.060;2022-07-17T08:13:57;100298.19;;;23.92;40.37
51972;BME280;37991;49.662;10.060;2022-07-17T08:16:23;100295.50;;;24.00;40.13
51972;BME280;37991;49.662;10.060;2022-07-17T08:18:48;100293.34;;;23.96;41.06
51972;BME280;37991;49.662;10.060;2022-07-17T08:21:13;100297.53;;;24.54;38.73
51972;BME280;37991;49.662;10.060;2022-07-17T08:23:39;100290.41;;;24.22;39.27
51972;BME280;37991;49.662;10.060;2022-07-17T08:26:04;100286.41;;;24.26;38.88
51972;BME280;37991;49.662;10.060;2022-07-17T08:28:30;100286.66;;;23.92;41.09
51972;BME280;37991;49.662;10.060;2022-07-17T08:30:55;100286.28;;;24.11;39.10
51972;BME280;37991;49.662;10.060;2022-07-17T08:33:20;100280.25;;;24.56;39.00
51972;BME280;37991;49.662;10.060;2022-07-17T08:35:46;100277.06;;;24.61;38.86
51972;BME280;37991;49.662;10.060;2022-07-17T08:38:11;100274.94;;;24.40;39.08
51972;BME280;37991;49.662;10.060;2022-07-17T08:40:38;100278.34;;;23.62;43.09
51972;BME280;37991;49.662;10.060;2022-07-17T08:43:06;100275.25;;;24.06;40.89
51972;BME280;37991;49.662;10.060;2022-07-17T08:45:32;100272.59;;;24.06;39.61
51972;BME280;37991;49.662;10.060;2022-07-17T08:47:58;100280.66;;;24.45;40.70
51972;BME280;37991;49.662;10.060;2022-07-17T08:50:26;100269.88;;;24.14;41.31
51972;BME280;37991;49.662;10.060;2022-07-17T08:52:52;100265.88;;;24.57;38.55
51972;BME280;37991;49.662;10.060;2022-07-17T08:55:17;100260.84;;;24.86;38.91
51972;BME280;37991;49.662;10.060;2022-07-17T08:57:44;100265.66;;;24.90;39.49
51972;BME280;37991;49.662;10.060;2022-07-17T09:00:15;100272.44;;;25.01;38.86
51972;BME280;37991;49.662;10.060;2022-07-17T09:03:01;100259.03;;;25.47;37.29
51972;BME280;37991;49.662;10.060;2022-07-17T09:05:30;100256.47;;;25.08;38.88
51972;BME280;37991;49.662;10.060;2022-07-17T09:07:56;100258.25;;;23.90;42.62
51972;BME280;37991;49.662;10.060;2022-07-17T09:10:33;100264.19;;;24.56;38.42
51972;BME280;37991;49.662;10.060;2022-07-17T09:12:59;100255.94;;;23.63;42.71
51972;BME280;37991;49.662;10.060;2022-07-17T09:15:26;100259.03;;;23.99;41.30
51972;BME280;37991;49.662;10.060;2022-07-17T09:17:54;100250.63;;;24.58;39.13
51972;BME280;37991;49.662;10.060;2022-07-17T09:20:20;100250.44;;;24.20;39.39
51972;BME280;37991;49.662;10.060;2022-07-17T09:23:00;100233.94;;;25.40;38.95
51972;BME280;37991;49.662;10.060;2022-07-17T09:25:44;100231.53;;;25.83;36.73
51972;BME280;37991;49.662;10.060;2022-07-17T09:28:11;100238.66;;;26.05;35.86
51972;BME280;37991;49.662;10.060;2022-07-17T09:30:42;100236.16;;;25.89;35.90
51972;BME280;37991;49.662;10.060;2022-07-17T09:36:11;100229.47;;;26.14;37.43
51972;BME280;37991;49.662;10.060;2022-07-17T09:38:41;100226.09;;;26.42;36.43
51972;BME280;37991;49.662;10.060;2022-07-17T09:41:08;100227.03;;;26.49;34.57
51972;BME280;37991;49.662;10.060;2022-07-17T09:46:08;100239.25;;;26.37;34.24
51972;BME280;37991;49.662;10.060;2022-07-17T09:48:35;100249.13;;;25.85;36.52
51972;BME280;37991;49.662;10.060;2022-07-17T09:51:04;100257.34;;;26.13;36.76
51972;BME280;37991;49.662;10.060;2022-07-17T09:53:32;100244.84;;;26.06;37.65
51972;BME280;37991;49.662;10.060;2022-07-17T09:56:01;100242.91;;;26.14;36.66
51972;BME280;37991;49.662;10.060;2022-07-17T09:58:30;100242.44;;;26.11;37.04
51972;BME280;37991;49.662;10.060;2022-07-17T10:00:57;100247.00;;;25.95;35.76
51972;BME280;37991;49.662;10.060;2022-07-17T10:03:24;100241.34;;;26.05;35.09
51972;BME280;37991;49.662;10.060;2022-07-17T10:05:50;100239.81;;;25.73;37.27
51972;BME280;37991;49.662;10.060;2022-07-17T10:08:15;100230.47;;;25.16;36.74
51972;BME280;37991;49.662;10.060;2022-07-17T10:10:42;100223.47;;;25.15;38.55
51972;BME280;37991;49.662;10.060;2022-07-17T10:13:07;100219.69;;;25.39;37.06
51972;BME280;37991;49.662;10.060;2022-07-17T10:15:33;100207.00;;;25.56;35.58
51972;BME280;37991;49.662;10.060;2022-07-17T10:18:06;100215.69;;;25.73;36.28
51972;BME280;37991;49.662;10.060;2022-07-17T10:20:31;100212.44;;;25.78;36.23
51972;BME280;37991;49.662;10.060;2022-07-17T10:22:57;100223.78;;;25.88;35.08
51972;BME280;37991;49.662;10.060;2022-07-17T10:25:22;100224.19;;;25.77;36.20
51972;BME280;37991;49.662;10.060;2022-07-17T10:27:53;100222.66;;;25.82;35.76
51972;BME280;37991;49.662;10.060;2022-07-17T10:30:22;100222.53;;;25.75;34.58
51972;BME280;37991;49.662;10.060;2022-07-17T10:32:59;100225.41;;;25.59;34.79
51972;BME280;37991;49.662;10.060;2022-07-17T10:35:26;100220.94;;;25.37;35.83
51972;BME280;37991;49.662;10.060;2022-07-17T10:37:52;100232.44;;;24.99;36.95
51972;BME280;37991;49.662;10.060;2022-07-17T10:40:23;100225.03;;;25.01;35.53
51972;BME280;37991;49.662;10.060;2022-07-17T10:42:57;100230.69;;;24.83;36.36
51972;BME280;37991;49.662;10.060;2022-07-17T10:45:31;100228.25;;;24.74;36.67
51972;BME280;37991;49.662;10.060;2022-07-17T10:48:14;100233.19;;;24.85;36.63
51972;BME280;37991;49.662;10.060;2022-07-17T10:53:19;100225.94;;;25.17;35.65
51972;BME280;37991;49.662;10.060;2022-07-17T10:55:57;100222.97;;;25.12;36.05
51972;BME280;37991;49.662;10.060;2022-07-17T11:01:05;100221.97;;;25.13;36.69
51972;BME280;37991;49.662;10.060;2022-07-17T11:03:35;100218.19;;;25.22;36.95
51972;BME280;37991;49.662;10.060;2022-07-17T11:06:08;100217.28;;;25.29;34.71
51972;BME280;37991;49.662;10.060;2022-07-17T11:08:36;100218.97;;;25.31;35.85
51972;BME280;37991;49.662;10.060;2022-07-17T11:11:05;100215.94;;;24.88;38.79
51972;BME280;37991;49.662;10.060;2022-07-17T11:13:30;100208.56;;;25.13;35.31
51972;BME280;37991;49.662;10.060;2022-07-17T11:15:55;100204.19;;;25.12;35.94
51972;BME280;37991;49.662;10.060;2022-07-17T11:18:21;100199.06;;;25.40;34.85
51972;BME280;37991;49.662;10.060;2022-07-17T11:20:54;100208.50;;;25.36;34.94
51972;BME280;37991;49.662;10.060;2022-07-17T11:23:21;100211.66;;;25.24;34.44
51972;BME280;37991;49.662;10.060;2022-07-17T11:26:00;100214.13;;;25.26;35.00
51972;BME280;37991;49.662;10.060;2022-07-17T11:28:31;100205.84;;;25.36;34.52
51972;BME280;37991;49.662;10.060;2022-07-17T11:30:57;100207.69;;;24.43;39.27
51972;BME280;37991;49.662;10.060;2022-07-17T11:33:22;100202.84;;;23.99;41.31
51972;BME280;37991;49.662;10.060;2022-07-17T11:35:48;100210.88;;;24.70;34.83
51972;BME280;37991;49.662;10.060;2022-07-17T11:38:14;100199.44;;;24.99;33.81
51972;BME280;37991;49.662;10.060;2022-07-17T11:40:47;100198.72;;;25.05;33.66
51972;BME280;37991;49.662;10.060;2022-07-17T11:43:12;100192.28;;;25.14;33.02
51972;BME280;37991;49.662;10.060;2022-07-17T11:45:38;100193.78;;;25.17;32.92
51972;BME280;37991;49.662;10.060;2022-07-17T11:48:05;100188.00;;;24.82;36.01
51972;BME280;37991;49.662;10.060;2022-07-17T11:50:30;100198.78;;;25.20;32.15
51972;BME280;37991;49.662;10.060;2022-07-17T11:53:01;100203.06;;;25.06;32.72
51972;BME280;37991;49.662;10.060;2022-07-17T11:55:37;100187.88;;;25.21;32.80
51972;BME280;37991;49.662;10.060;2022-07-17T11:58:03;100191.69;;;25.04;33.49
51972;BME280;37991;49.662;10.060;2022-07-17T12:00:29;100180.13;;;25.03;32.24
51972;BME280;37991;49.662;10.060;2022-07-17T12:03:06;100184.06;;;25.16;32.08
51972;BME280;37991;49.662;10.060;2022-07-17T12:05:35;100184.78;;;25.10;31.68
51972;BME280;37991;49.662;10.060;2022-07-17T12:08:01;100193.09;;;24.77;33.77
51972;BME280;37991;49.662;10.060;2022-07-17T12:10:29;100185.00;;;23.92;37.67
51972;BME280;37991;49.662;10.060;2022-07-17T12:13:00;100183.28;;;24.38;33.52
51972;BME280;37991;49.662;10.060;2022-07-17T12:18:05;100179.06;;;25.13;31.45
51972;BME280;37991;49.662;10.060;2022-07-17T12:20:44;100175.31;;;25.22;31.12
51972;BME280;37991;49.662;10.060;2022-07-17T12:28:28;100170.13;;;25.20;31.08
51972;BME280;37991;49.662;10.060;2022-07-17T12:30:55;100168.75;;;25.24;31.10
51972;BME280;37991;49.662;10.060;2022-07-17T12:33:20;100171.53;;;25.31;31.52
51972;BME280;37991;49.662;10.060;2022-07-17T12:35:45;100170.25;;;25.42;29.54
51972;BME280;37991;49.662;10.060;2022-07-17T12:38:11;100168.66;;;25.33;30.48
51972;BME280;37991;49.662;10.060;2022-07-17T12:40:36;100167.72;;;25.25;31.60
51972;BME280;37991;49.662;10.060;2022-07-17T12:43:01;100163.47;;;25.16;35.11
51972;BME280;37991;49.662;10.060;2022-07-17T12:45:27;100167.53;;;25.12;33.53
51972;BME280;37991;49.662;10.060;2022-07-17T12:47:53;100169.59;;;25.02;33.38
51972;BME280;37991;49.662;10.060;2022-07-17T12:50:19;100161.16;;;25.13;33.73
51972;BME280;37991;49.662;10.060;2022-07-17T12:52:44;100164.31;;;24.94;34.07
51972;BME280;37991;49.662;10.060;2022-07-17T12:55:10;100168.19;;;24.68;34.89